Time;durP1;ratioP1;P1;durP2;ratioP2;P2;SDS_P1;SDS_P2;PMS_P1;PMS_P2;Temp;Humidity;BMP_temperature;BMP_pressure;BME280_temperature;BME280_humidity;BME280_pressure;Samples;Min_cycle;Max_cycle;Signal;HPM_P1;HPM_P2
2022/02/12 00:00:31;;;;;;;2.10;1.77;;;0.90;99.90;;;;;;4994107;28;20480;-68
2022/02/12 00:02:56;;;;;;;2.10;2.00;;;0.70;99.90;;;;;;4994646;28;20571;-69
2022/02/12 00:05:26;;;;;;;1.30;1.20;;;0.60;99.90;;;;;;4993212;28;20451;-68
2022/02/12 00:07:53;;;;;;;1.40;1.30;;;0.70;99.90;;;;;;4994467;28;20408;-68
2022/02/12 00:10:19;;;;;;;2.83;1.33;;;0.70;99.90;;;;;;4976389;28;20997;-69
2022/02/12 00:12:44;;;;;;;1.07;0.80;;;0.60;99.90;;;;;;4994304;28;20412;-68
2022/02/12 00:15:10;;;;;;;1.57;1.47;;;0.60;99.90;;;;;;4976478;28;20632;-70
2022/02/12 00:17:36;;;;;;;1.20;1.10;;;0.60;99.90;;;;;;4994345;28;20260;-68
2022/02/12 00:20:04;;;;;;;5.10;1.57;;;0.80;99.90;;;;;;4994001;28;20923;-68
2022/02/12 00:22:29;;;;;;;1.43;1.33;;;0.70;99.90;;;;;;4994131;28;20624;-69
2022/02/12 00:24:54;;;;;;;1.23;1.20;;;0.60;99.90;;;;;;4993673;28;20401;-69
2022/02/12 00:27:20;;;;;;;1.43;1.33;;;0.70;99.90;;;;;;4993793;28;20208;-68
2022/02/12 00:29:45;;;;;;;1.80;0.90;;;0.70;99.90;;;;;;4993675;28;20251;-68
2022/02/12 00:32:11;;;;;;;3.03;1.37;;;0.70;99.90;;;;;;4993775;28;20173;-69
2022/02/12 00:34:36;;;;;;;0.80;0.80;;;0.70;99.90;;;;;;4993611;28;20180;-68
2022/02/12 00:37:03;;;;;;;1.70;1.60;;;0.60;99.90;;;;;;4993734;28;20165;-68
2022/02/12 00:39:28;;;;;;;1.83;1.43;;;0.60;99.90;;;;;;4993422;28;20185;-69
2022/02/12 00:41:54;;;;;;;1.13;1.13;;;0.50;99.90;;;;;;4993502;28;20502;-69
2022/02/12 00:44:19;;;;;;;1.50;1.40;;;0.60;99.90;;;;;;4993569;28;20607;-68
2022/02/12 00:46:45;;;;;;;1.50;1.40;;;0.50;99.90;;;;;;4993536;28;20201;-69
2022/02/12 00:49:10;;;;;;;1.37;1.27;;;0.60;99.90;;;;;;4975851;28;20193;-68
2022/02/12 00:51:35;;;;;;;2.60;2.40;;;0.50;99.90;;;;;;4993377;28;20171;-69
2022/02/12 00:54:05;;;;;;;1.60;1.50;;;0.50;99.90;;;;;;4993187;28;20180;-69
2022/02/12 00:56:31;;;;;;;1.30;1.20;;;0.50;99.90;;;;;;4993533;28;20612;-69
2022/02/12 00:58:56;;;;;;;1.50;1.40;;;0.40;99.90;;;;;;4993367;28;20474;-69
2022/02/12 01:01:22;;;;;;;1.20;1.10;;;0.30;99.90;;;;;;4993068;28;20455;-69
2022/02/12 01:03:47;;;;;;;1.60;1.30;;;0.40;99.90;;;;;;4993358;28;20184;-69
2022/02/12 01:06:13;;;;;;;3.07;1.77;;;0.40;99.90;;;;;;4993027;28;20177;-69
2022/02/12 01:08:41;;;;;;;2.80;1.20;;;0.40;99.90;;;;;;4993265;28;20173;-69
2022/02/12 01:11:07;;;;;;;0.97;0.97;;;0.30;99.90;;;;;;5026189;22;20220;-73
2022/02/12 01:13:33;;;;;;;1.03;0.90;;;0.30;99.90;;;;;;5016892;28;20411;-73
2022/02/12 01:15:58;;;;;;;1.50;1.40;;;0.20;99.90;;;;;;5013646;28;20688;-73
2022/02/12 01:18:24;;;;;;;1.47;1.13;;;0.20;99.90;;;;;;5012394;28;20206;-73
2022/02/12 01:20:49;;;;;;;1.07;1.07;;;0.30;99.90;;;;;;5012526;28;20200;-73
2022/02/12 01:23:15;;;;;;;0.93;0.93;;;0.20;99.90;;;;;;5012312;28;20227;-73
2022/02/12 01:25:40;;;;;;;1.00;1.00;;;0.30;99.90;;;;;;5012524;28;20185;-73
2022/02/12 01:28:06;;;;;;;0.90;0.90;;;0.20;99.90;;;;;;5012837;28;20188;-73
2022/02/12 01:30:32;;;;;;;1.97;1.20;;;0.20;99.90;;;;;;5012438;28;20712;-73
2022/02/12 01:32:57;;;;;;;1.73;1.47;;;0.10;99.90;;;;;;5012499;28;20177;-73
2022/02/12 01:35:24;;;;;;;12.43;3.07;;;-0.10;99.90;;;;;;5012361;28;20202;-72
2022/02/12 01:37:50;;;;;;;3.97;2.30;;;-0.10;99.90;;;;;;5012466;28;20196;-73
2022/02/12 01:40:16;;;;;;;3.90;3.57;;;-0.10;99.90;;;;;;5012459;28;20482;-74
2022/02/12 01:42:42;;;;;;;3.30;2.07;;;-0.20;99.90;;;;;;5013297;28;20462;-73
2022/02/12 01:45:08;;;;;;;1.93;1.83;;;-0.20;99.90;;;;;;5012916;28;20777;-73
2022/02/12 01:47:34;;;;;;;3.33;1.33;;;0.00;99.90;;;;;;5012538;28;20179;-74
2022/02/12 01:49:59;;;;;;;3.53;2.13;;;0.10;99.90;;;;;;5012162;28;20407;-74
2022/02/12 01:52:28;;;;;;;5.53;1.87;;;0.00;99.90;;;;;;5012070;28;20180;-73
2022/02/12 01:54:54;;;;;;;2.97;2.77;;;0.00;99.90;;;;;;5012142;28;20180;-73
2022/02/12 01:57:20;;;;;;;1.30;1.20;;;0.10;99.90;;;;;;5012398;28;21032;-73
2022/02/12 01:59:45;;;;;;;1.40;1.30;;;0.10;99.90;;;;;;5012137;28;20172;-73
2022/02/12 02:02:10;;;;;;;3.73;1.60;;;0.10;99.90;;;;;;5012045;28;20579;-75
2022/02/12 02:04:40;;;;;;;3.83;1.50;;;0.20;99.90;;;;;;5012004;28;20170;-73
2022/02/12 02:07:05;;;;;;;2.10;1.90;;;0.10;99.90;;;;;;5012302;28;20168;-73
2022/02/12 02:09:31;;;;;;;3.70;1.63;;;0.10;99.90;;;;;;5012639;28;20411;-74
2022/02/12 02:11:57;;;;;;;2.80;2.70;;;0.10;99.90;;;;;;5011836;28;20249;-74
2022/02/12 02:14:36;;;;;;;4.20;2.53;;;-0.10;99.90;;;;;;5011992;28;20426;-74
2022/02/12 02:17:02;;;;;;;2.00;1.47;;;-0.20;99.90;;;;;;5011931;28;20180;-74
2022/02/12 02:19:30;;;;;;;2.23;2.13;;;-0.30;99.90;;;;;;5011952;28;20419;-74
2022/02/12 02:21:57;;;;;;;3.73;2.20;;;-0.30;99.90;;;;;;5011582;28;20590;-74
2022/02/12 02:24:23;;;;;;;1.90;1.77;;;-0.30;99.90;;;;;;5012380;28;20403;-75
2022/02/12 02:26:48;;;;;;;1.60;1.50;;;-0.30;99.90;;;;;;4994919;28;20790;-74
2022/02/12 02:29:15;;;;;;;1.63;1.40;;;0.00;99.90;;;;;;5013842;28;20172;-75
2022/02/12 02:31:40;;;;;;;13.20;3.33;;;0.10;99.90;;;;;;5016195;28;20258;-74
2022/02/12 02:34:09;;;;;;;2.70;2.50;;;0.10;99.90;;;;;;5016199;28;20419;-74
2022/02/12 02:36:35;;;;;;;2.30;2.20;;;0.00;99.90;;;;;;5014679;28;20176;-74
2022/02/12 02:39:00;;;;;;;4.90;1.60;;;-0.20;99.90;;;;;;5015874;28;20471;-74
2022/02/12 02:41:26;;;;;;;2.67;1.43;;;-0.30;99.90;;;;;;5015480;28;20300;-74
2022/02/12 02:43:52;;;;;;;3.83;2.20;;;-0.30;99.90;;;;;;5015704;28;20271;-74
2022/02/12 02:46:19;;;;;;;1.67;1.30;;;-0.40;99.90;;;;;;5015388;28;20179;-75
2022/02/12 02:48:44;;;;;;;3.20;2.67;;;-0.30;99.90;;;;;;5015672;28;20259;-75
2022/02/12 02:56:38;;;;;;;1.60;1.40;;;-0.30;99.90;;;;;;5015622;28;20912;-74
2022/02/12 02:59:04;;;;;;;1.00;0.97;;;-0.20;99.90;;;;;;5015927;28;20423;-74
2022/02/12 03:01:30;;;;;;;1.77;1.23;;;-0.10;99.90;;;;;;5017514;28;20262;-74
2022/02/12 03:03:56;;;;;;;1.20;1.10;;;-0.10;99.90;;;;;;5015531;28;20160;-74
2022/02/12 03:06:28;;;;;;;1.83;1.73;;;-0.30;99.90;;;;;;5015030;28;20832;-75
2022/02/12 03:08:54;;;;;;;1.97;1.33;;;-0.30;99.90;;;;;;5015222;28;20171;-74
2022/02/12 03:11:20;;;;;;;1.27;1.17;;;-0.40;99.90;;;;;;5014832;28;20505;-74
2022/02/12 03:13:47;;;;;;;2.53;1.00;;;-0.50;99.90;;;;;;5015096;28;20426;-74
2022/02/12 03:16:13;;;;;;;1.17;1.07;;;-0.50;99.90;;;;;;5015079;28;20780;-75
2022/02/12 03:18:42;;;;;;;0.90;0.90;;;-0.40;99.90;;;;;;5015466;28;20403;-74
2022/02/12 03:21:07;;;;;;;1.00;1.00;;;-0.30;99.90;;;;;;5015074;28;20455;-74
2022/02/12 03:23:34;;;;;;;1.00;1.00;;;-0.40;99.90;;;;;;5014923;28;20897;-74
2022/02/12 03:25:59;;;;;;;1.10;1.00;;;-0.40;99.90;;;;;;5014946;28;20252;-74
2022/02/12 03:28:25;;;;;;;1.10;1.00;;;-0.50;99.90;;;;;;5015061;28;20934;-74
2022/02/12 03:30:50;;;;;;;3.13;2.23;;;-0.50;99.90;;;;;;5014692;28;20235;-75
2022/02/12 03:33:16;;;;;;;1.23;0.90;;;-0.60;99.90;;;;;;5014903;28;20169;-74
2022/02/12 03:35:42;;;;;;;1.10;1.03;;;-0.50;99.90;;;;;;5014543;28;20179;-74
2022/02/12 03:38:13;;;;;;;0.80;0.80;;;-0.60;99.90;;;;;;5014539;28;20404;-74
2022/02/12 03:40:44;;;;;;;1.07;1.00;;;-0.70;99.90;;;;;;5016691;28;20451;-74
2022/02/12 03:43:10;;;;;;;1.33;1.23;;;-0.70;99.90;;;;;;5023457;28;20431;-74
2022/02/12 03:45:36;;;;;;;10.43;1.50;;;-0.70;99.90;;;;;;5024998;28;20431;-74
2022/02/12 03:48:02;;;;;;;1.10;1.03;;;-0.70;99.90;;;;;;5026284;28;20426;-74
2022/02/12 03:50:28;;;;;;;1.20;1.13;;;-0.60;99.90;;;;;;5015907;28;20427;-74
2022/02/12 03:52:54;;;;;;;1.70;1.60;;;-0.60;99.90;;;;;;5014320;28;20417;-74
2022/02/12 03:55:20;;;;;;;1.07;1.07;;;-0.60;99.90;;;;;;5014282;28;20419;-75
2022/02/12 03:57:47;;;;;;;2.30;1.90;;;-0.60;99.90;;;;;;5014157;28;20774;-74
2022/02/12 04:00:14;;;;;;;0.90;0.90;;;-0.60;99.90;;;;;;5013920;28;20195;-74
2022/02/12 04:02:40;;;;;;;6.87;1.00;;;-0.60;99.90;;;;;;5014073;28;20411;-74
2022/02/12 04:05:07;;;;;;;1.17;1.07;;;-0.70;99.90;;;;;;5013969;28;20403;-74
2022/02/12 04:07:32;;;;;;;1.87;1.77;;;-0.70;99.90;;;;;;5013847;28;20395;-74
2022/02/12 04:09:58;;;;;;;1.03;0.97;;;-0.70;99.90;;;;;;5014088;28;20473;-74
2022/02/12 04:12:23;;;;;;;1.10;1.10;;;-0.70;99.90;;;;;;5014070;28;20259;-75
2022/02/12 04:14:49;;;;;;;1.57;1.50;;;-0.80;99.90;;;;;;5014008;28;20573;-74
2022/02/12 04:17:15;;;;;;;0.80;0.80;;;-0.90;99.90;;;;;;5013964;28;20260;-74
2022/02/12 04:19:40;;;;;;;1.77;1.67;;;-0.80;99.90;;;;;;5014266;28;20176;-74
2022/02/12 04:22:05;;;;;;;1.23;1.13;;;-0.90;99.90;;;;;;5013447;28;20501;-74
2022/02/12 04:24:31;;;;;;;1.20;1.10;;;-0.90;99.90;;;;;;5013612;28;20655;-74
2022/02/12 04:26:56;;;;;;;1.97;1.63;;;-1.00;99.90;;;;;;5013851;28;20581;-74
2022/02/12 04:29:22;;;;;;;1.23;1.13;;;-0.90;99.90;;;;;;5013947;28;20211;-73
2022/02/12 04:31:47;;;;;;;2.90;2.70;;;-1.00;99.90;;;;;;5013516;28;20192;-75
2022/02/12 04:34:13;;;;;;;1.40;1.30;;;-1.00;99.90;;;;;;4996112;28;20182;-75
2022/02/12 04:36:38;;;;;;;1.23;1.13;;;-0.90;99.90;;;;;;5013379;28;20614;-75
2022/02/12 04:39:04;;;;;;;1.50;1.40;;;-1.00;99.90;;;;;;5013658;28;20180;-73
2022/02/12 04:41:29;;;;;;;1.10;1.00;;;-1.00;99.90;;;;;;5013496;28;20298;-73
2022/02/12 04:43:55;;;;;;;0.90;0.90;;;-0.90;99.90;;;;;;5013758;28;20180;-73
2022/02/12 04:46:20;;;;;;;1.07;1.07;;;-0.80;99.90;;;;;;5015057;28;20176;-74
2022/02/12 04:48:49;;;;;;;1.20;1.20;;;-1.00;99.90;;;;;;5018832;28;20169;-73
2022/02/12 04:51:18;;;;;;;1.00;1.00;;;-1.00;99.90;;;;;;5015805;28;20219;-73
2022/02/12 04:53:44;;;;;;;3.80;1.27;;;-1.00;99.90;;;;;;5014286;28;20918;-74
2022/02/12 04:56:10;;;;;;;0.90;0.90;;;-0.90;99.90;;;;;;5013511;28;20782;-74
2022/02/12 04:58:35;;;;;;;1.90;1.80;;;-0.90;99.90;;;;;;5013471;28;20418;-74
2022/02/12 05:01:01;;;;;;;3.30;3.10;;;-1.00;99.90;;;;;;4996113;28;20216;-74
2022/02/12 05:03:26;;;;;;;1.03;0.97;;;-0.90;99.90;;;;;;4996208;28;20715;-74
2022/02/12 05:05:51;;;;;;;1.70;1.37;;;-1.00;99.90;;;;;;5013108;28;20544;-74
2022/02/12 05:08:17;;;;;;;1.73;1.63;;;-1.00;99.90;;;;;;5013197;28;20172;-74
2022/02/12 05:10:42;;;;;;;1.60;1.50;;;-0.90;99.90;;;;;;5013342;28;20207;-74
2022/02/12 05:13:08;;;;;;;1.50;1.17;;;-1.00;99.90;;;;;;5013111;28;20281;-74
2022/02/12 05:15:33;;;;;;;0.80;0.80;;;-1.00;99.90;;;;;;5012971;28;20187;-75
2022/02/12 05:17:59;;;;;;;2.30;1.30;;;-0.90;99.90;;;;;;5012785;28;20180;-74
2022/02/12 05:20:24;;;;;;;1.47;1.17;;;-1.00;99.90;;;;;;5012545;28;20212;-74
2022/02/12 05:22:50;;;;;;;3.60;1.97;;;-1.00;99.90;;;;;;5012859;28;20168;-74
2022/02/12 05:25:15;;;;;;;1.47;1.33;;;-1.00;99.90;;;;;;5012729;28;20173;-74
2022/02/12 05:27:40;;;;;;;1.33;1.23;;;-1.10;99.90;;;;;;5012735;28;20172;-74
2022/02/12 05:30:06;;;;;;;0.90;0.90;;;-1.10;99.90;;;;;;5012795;28;20199;-74
2022/02/12 05:32:32;;;;;;;2.20;2.00;;;-1.00;99.90;;;;;;5012933;28;20230;-74
2022/02/12 05:34:58;;;;;;;1.67;1.57;;;-1.00;99.90;;;;;;5012822;28;20416;-74
2022/02/12 05:37:24;;;;;;;0.90;0.90;;;-1.00;99.90;;;;;;5012529;28;20161;-74
2022/02/12 05:39:50;;;;;;;1.17;1.17;;;-1.00;99.90;;;;;;5012563;28;20411;-74
2022/02/12 05:42:15;;;;;;;1.23;1.23;;;-0.90;99.90;;;;;;5012491;28;20262;-74
2022/02/12 05:44:40;;;;;;;2.00;1.17;;;-0.90;99.90;;;;;;4994638;28;20266;-74
2022/02/12 05:47:06;;;;;;;2.27;2.17;;;-0.90;99.90;;;;;;5012651;28;20172;-74
2022/02/12 05:49:32;;;;;;;3.50;2.20;;;-0.90;99.90;;;;;;5012660;28;20164;-74
2022/02/12 05:51:57;;;;;;;1.40;1.30;;;-0.90;99.90;;;;;;5012291;28;20200;-74
2022/02/12 05:54:23;;;;;;;2.70;1.47;;;-0.90;99.90;;;;;;4994486;28;20570;-74
2022/02/12 05:56:49;;;;;;;1.17;0.97;;;-0.90;99.90;;;;;;5012368;28;20172;-74
2022/02/12 05:59:16;;;;;;;1.40;1.30;;;-0.90;99.90;;;;;;5012125;28;20403;-73
2022/02/12 06:01:42;;;;;;;4.10;1.50;;;-1.10;99.90;;;;;;5011953;28;20203;-74
2022/02/12 06:04:07;;;;;;;0.80;0.80;;;-1.00;99.90;;;;;;5011922;28;20490;-74
2022/02/12 06:06:33;;;;;;;2.00;1.90;;;-1.10;99.90;;;;;;5012134;28;20407;-74
2022/02/12 06:08:58;;;;;;;3.20;3.10;;;-1.20;99.90;;;;;;5012162;28;20168;-74
2022/02/12 06:11:24;;;;;;;1.00;1.00;;;-1.00;99.90;;;;;;5012043;28;20223;-74
2022/02/12 06:13:52;;;;;;;1.50;1.40;;;-1.10;99.90;;;;;;5011945;28;20658;-74
2022/02/12 06:16:19;;;;;;;1.67;1.57;;;-1.10;99.90;;;;;;5012111;28;20188;-74
2022/02/12 06:18:45;;;;;;;2.00;1.70;;;-0.90;99.90;;;;;;5011997;28;20499;-75
2022/02/12 06:21:10;;;;;;;2.30;2.20;;;-0.60;99.90;;;;;;5012086;28;20553;-75
2022/02/12 06:23:36;;;;;;;0.93;0.90;;;0.00;99.90;;;;;;5011980;28;20195;-74
2022/02/12 06:26:03;;;;;;;0.87;0.87;;;0.30;99.90;;;;;;5012005;28;20707;-75
2022/02/12 06:28:28;;;;;;;0.80;0.80;;;0.40;99.90;;;;;;5011940;28;20446;-75
2022/02/12 06:30:54;;;;;;;0.90;0.90;;;0.40;99.90;;;;;;5011928;28;20455;-74
2022/02/12 06:33:20;;;;;;;1.73;1.63;;;0.40;99.90;;;;;;5011766;28;20200;-74
2022/02/12 06:35:45;;;;;;;1.93;1.83;;;0.30;99.90;;;;;;5013710;28;20165;-75
2022/02/12 06:38:11;;;;;;;1.63;1.23;;;0.30;99.90;;;;;;5016657;28;20164;-74
2022/02/12 06:40:36;;;;;;;0.80;0.80;;;0.70;99.90;;;;;;5012028;28;20693;-75
2022/02/12 06:43:03;;;;;;;3.23;2.33;;;0.60;99.90;;;;;;5011652;28;20168;-74
2022/02/12 06:45:29;;;;;;;1.00;0.93;;;0.60;99.90;;;;;;5011846;28;20257;-75
2022/02/12 06:47:55;;;;;;;6.07;1.60;;;0.80;99.90;;;;;;5012175;28;20411;-74
2022/02/12 06:50:21;;;;;;;2.03;1.93;;;1.00;99.90;;;;;;5011721;28;20426;-74
2022/02/12 06:52:46;;;;;;;0.80;0.80;;;1.00;99.90;;;;;;5011747;28;20251;-75
2022/02/12 06:55:12;;;;;;;1.77;1.33;;;1.00;99.90;;;;;;4993981;28;20160;-74
2022/02/12 06:57:38;;;;;;;8.23;3.40;;;1.00;99.90;;;;;;5011775;28;20699;-74
2022/02/12 07:00:06;;;;;;;1.73;1.63;;;0.90;99.90;;;;;;5011431;28;20631;-74
2022/02/12 07:02:31;;;;;;;2.30;2.13;;;1.10;99.90;;;;;;5011380;28;20462;-75
2022/02/12 07:04:58;;;;;;;1.10;1.00;;;0.80;99.90;;;;;;5011567;28;20406;-73
2022/02/12 07:07:23;;;;;;;3.37;1.23;;;1.00;99.90;;;;;;5012048;28;20168;-75
2022/02/12 07:09:49;;;;;;;2.33;2.13;;;1.10;99.90;;;;;;5011796;28;20458;-75
2022/02/12 07:12:14;;;;;;;3.23;2.20;;;1.40;99.90;;;;;;5032561;23;20232;-73
2022/02/12 07:14:40;;;;;;;4.80;3.07;;;1.10;99.90;;;;;;5011472;28;20226;-72
2022/02/12 07:17:05;;;;;;;1.43;1.10;;;1.40;99.90;;;;;;5014429;28;20168;-73
2022/02/12 07:19:32;;;;;;;3.67;3.37;;;1.90;99.90;;;;;;5009791;28;20680;-73
2022/02/12 07:21:58;;;;;;;4.40;2.30;;;1.90;99.90;;;;;;5013913;28;20254;-72
2022/02/12 07:24:23;;;;;;;5.53;1.60;;;1.60;99.90;;;;;;4996128;28;20539;-73
2022/02/12 07:26:49;;;;;;;2.30;1.83;;;1.30;99.90;;;;;;4994903;28;20165;-72
2022/02/12 07:29:14;;;;;;;1.97;1.87;;;1.00;99.90;;;;;;4994933;28;20173;-72
2022/02/12 07:31:40;;;;;;;1.30;1.20;;;1.00;99.90;;;;;;4995209;28;20267;-72
2022/02/12 07:34:05;;;;;;;2.30;2.10;;;0.90;99.90;;;;;;4994920;28;20180;-72
2022/02/12 07:36:31;;;;;;;3.50;1.80;;;1.00;99.90;;;;;;5006530;28;20169;-73
2022/02/12 07:38:56;;;;;;;3.93;2.10;;;1.10;99.90;;;;;;5014392;28;20203;-72
2022/02/12 07:41:21;;;;;;;1.80;1.70;;;2.00;99.90;;;;;;5014079;28;20204;-72
2022/02/12 07:43:47;;;;;;;8.63;2.93;;;2.30;99.90;;;;;;5014181;28;20183;-72
2022/02/12 07:46:13;;;;;;;2.30;2.13;;;2.10;99.90;;;;;;5013898;28;20255;-72
2022/02/12 07:48:39;;;;;;;2.03;1.93;;;2.10;99.90;;;;;;5014060;28;20242;-72
2022/02/12 07:51:04;;;;;;;5.03;3.20;;;1.70;99.90;;;;;;5013816;28;20867;-72
2022/02/12 07:53:30;;;;;;;5.93;2.50;;;1.30;99.90;;;;;;5008347;28;20280;-72
2022/02/12 07:55:55;;;;;;;1.63;1.53;;;1.20;99.90;;;;;;4994293;28;20173;-72
2022/02/12 07:58:21;;;;;;;3.80;2.67;;;1.20;99.90;;;;;;4994443;28;20231;-72
2022/02/12 08:00:47;;;;;;;2.50;2.30;;;1.10;99.90;;;;;;4993829;28;20201;-72
2022/02/12 08:03:15;;;;;;;2.87;1.90;;;1.30;99.90;;;;;;4994376;28;20231;-71
2022/02/12 08:05:41;;;;;;;2.30;1.97;;;1.40;99.90;;;;;;4994267;28;20404;-71
2022/02/12 08:08:06;;;;;;;3.00;2.00;;;2.00;99.90;;;;;;4994106;28;20507;-71
2022/02/12 08:13:18;;;;;;;4.73;2.53;;;2.40;99.90;;;;;;4994155;28;20539;-71
2022/02/12 08:15:43;;;;;;;2.40;1.70;;;2.50;99.90;;;;;;4993908;28;20431;-71
2022/02/12 08:18:08;;;;;;;3.13;2.07;;;2.60;99.90;;;;;;4993972;28;20512;-71
2022/02/12 08:20:34;;;;;;;1.90;1.43;;;2.80;99.90;;;;;;4993478;28;20179;-71
2022/02/12 08:23:02;;;;;;;2.07;1.20;;;3.00;99.90;;;;;;4993833;28;20531;-72
2022/02/12 08:25:28;;;;;;;6.90;1.63;;;3.30;99.90;;;;;;4976305;28;20169;-72
2022/02/12 08:27:53;;;;;;;4.50;1.70;;;4.00;99.90;;;;;;4992393;28;20915;-70
2022/02/12 08:30:19;;;;;;;2.03;1.80;;;4.40;99.90;;;;;;4993564;28;20219;-71
2022/02/12 08:32:45;;;;;;;2.23;1.37;;;4.70;99.90;;;;;;4993883;28;20189;-71
2022/02/12 08:35:12;;;;;;;6.80;1.83;;;5.00;99.90;;;;;;4993605;28;20173;-72
2022/02/12 08:37:39;;;;;;;4.00;2.20;;;4.60;99.90;;;;;;4993718;28;20180;-70
2022/02/12 08:40:07;;;;;;;1.97;1.40;;;5.30;99.90;;;;;;4993627;28;20460;-71
2022/02/12 08:42:32;;;;;;;3.17;1.87;;;5.40;99.90;;;;;;4993075;28;20550;-71
2022/02/12 08:44:58;;;;;;;4.40;2.23;;;4.60;99.90;;;;;;4975742;28;20456;-71
2022/02/12 08:47:23;;;;;;;2.40;1.83;;;5.10;99.90;;;;;;4993154;28;20179;-71
2022/02/12 08:49:49;;;;;;;1.87;1.67;;;5.50;99.90;;;;;;4993328;28;20177;-71
2022/02/12 08:52:14;;;;;;;3.83;1.83;;;5.40;99.90;;;;;;4993105;28;20901;-71
2022/02/12 08:54:39;;;;;;;2.13;1.67;;;5.80;99.90;;;;;;4993173;28;20192;-72
2022/02/12 08:57:06;;;;;;;4.63;2.10;;;4.70;99.90;;;;;;4992905;28;20222;-72
2022/02/12 08:59:31;;;;;;;1.90;1.70;;;4.50;99.90;;;;;;4993237;28;20211;-72
2022/02/12 09:01:57;;;;;;;2.07;1.83;;;4.80;99.90;;;;;;4992854;28;20953;-72
2022/02/12 09:04:23;;;;;;;2.03;1.20;;;4.90;99.90;;;;;;4975949;28;20166;-72
2022/02/12 09:06:49;;;;;;;3.43;2.23;;;5.10;99.90;;;;;;4993059;28;20269;-72
2022/02/12 09:09:15;;;;;;;2.50;2.00;;;5.30;99.90;;;;;;4993186;28;20597;-72
2022/02/12 09:11:43;;;;;;;3.03;1.40;;;5.60;99.90;;;;;;4992749;28;20486;-72
2022/02/12 09:14:10;;;;;;;3.47;2.03;;;5.30;99.90;;;;;;4992879;28;20281;-72
2022/02/12 09:16:37;;;;;;;2.30;1.90;;;5.30;99.90;;;;;;4993014;28;20904;-72
2022/02/12 09:19:04;;;;;;;1.40;1.20;;;5.10;99.90;;;;;;4993030;28;20929;-72
2022/02/12 09:21:29;;;;;;;1.60;1.30;;;5.40;99.90;;;;;;4992797;28;20886;-72
2022/02/12 09:23:55;;;;;;;3.63;1.40;;;5.00;99.90;;;;;;4992581;28;20412;-72
2022/02/12 09:26:21;;;;;;;3.30;1.43;;;5.80;99.90;;;;;;4992863;28;20181;-71
2022/02/12 09:28:47;;;;;;;4.40;1.50;;;5.50;99.90;;;;;;4992837;28;20169;-71
2022/02/12 09:31:13;;;;;;;1.70;1.23;;;5.50;99.90;;;;;;4992640;28;20522;-71
2022/02/12 09:33:39;;;;;;;6.27;1.67;;;4.80;99.90;;;;;;4992426;28;20420;-71
2022/02/12 09:36:05;;;;;;;1.93;1.60;;;5.50;99.90;;;;;;4992498;28;20563;-71
2022/02/12 09:38:31;;;;;;;6.20;1.97;;;5.00;99.90;;;;;;4992257;28;20177;-71
2022/02/12 09:40:58;;;;;;;1.60;1.37;;;4.60;99.90;;;;;;4992414;28;20223;-71
2022/02/12 09:43:25;;;;;;;2.50;1.40;;;4.30;99.90;;;;;;4975093;28;20478;-71
2022/02/12 09:46:09;;;;;;;1.37;1.27;;;4.60;99.90;;;;;;4992301;28;20781;-71
2022/02/12 09:48:35;;;;;;;4.47;1.63;;;4.90;99.90;;;;;;4992436;28;20412;-71
2022/02/12 09:51:02;;;;;;;1.67;0.90;;;5.20;99.90;;;;;;4992298;28;20467;-72
2022/02/12 09:53:29;;;;;;;2.63;1.70;;;5.20;99.90;;;;;;4990054;28;20930;-71
2022/02/12 09:55:55;;;;;;;1.37;1.20;;;5.20;99.90;;;;;;4995126;28;20420;-71
2022/02/12 09:58:21;;;;;;;3.67;1.80;;;5.20;99.90;;;;;;4991948;28;20412;-72
2022/02/12 10:00:46;;;;;;;2.00;1.20;;;5.30;99.90;;;;;;4992287;28;20474;-71
2022/02/12 10:03:12;;;;;;;6.87;1.70;;;5.30;99.90;;;;;;4992014;28;20632;-72
2022/02/12 10:05:42;;;;;;;4.20;1.53;;;5.20;99.90;;;;;;4991726;28;20214;-71
2022/02/12 10:08:15;;;;;;;3.57;1.80;;;4.80;99.90;;;;;;4992324;28;20175;-71
2022/02/12 10:10:41;;;;;;;3.33;1.63;;;4.40;99.90;;;;;;4991916;28;20856;-71
2022/02/12 10:13:21;;;;;;;2.53;1.27;;;4.30;99.90;;;;;;4992101;28;20440;-71
2022/02/12 10:15:54;;;;;;;1.60;1.20;;;4.30;99.90;;;;;;4991943;28;20419;-71
2022/02/12 10:18:21;;;;;;;2.10;1.80;;;4.40;99.90;;;;;;4991977;28;20855;-71
2022/02/12 10:20:47;;;;;;;1.93;1.73;;;4.70;99.90;;;;;;4991966;28;20976;-71
2022/02/12 10:23:16;;;;;;;1.37;1.27;;;4.60;99.90;;;;;;4991897;28;20976;-71
2022/02/12 10:25:43;;;;;;;4.30;1.00;;;4.50;99.90;;;;;;4991698;28;20424;-72
2022/02/12 10:28:10;;;;;;;3.97;2.73;;;4.50;99.90;;;;;;4991726;28;20503;-71
2022/02/12 10:30:36;;;;;;;2.80;1.90;;;4.40;99.90;;;;;;4991635;28;20420;-71
2022/02/12 10:33:05;;;;;;;9.00;2.30;;;4.40;99.90;;;;;;4991655;28;20903;-70
2022/02/12 10:35:31;;;;;;;1.70;1.37;;;4.40;99.90;;;;;;4991823;28;20930;-70
2022/02/12 10:38:10;;;;;;;4.40;1.80;;;4.40;99.90;;;;;;4991824;28;20494;-70
2022/02/12 10:40:37;;;;;;;4.03;1.23;;;4.40;99.90;;;;;;4991324;28;20416;-70
2022/02/12 10:43:03;;;;;;;3.63;1.40;;;4.40;99.90;;;;;;4991584;28;20466;-70
2022/02/12 10:45:30;;;;;;;1.40;1.30;;;4.40;99.90;;;;;;4991844;28;20907;-70
2022/02/12 10:47:57;;;;;;;2.43;2.13;;;4.30;99.90;;;;;;4991680;28;20597;-71
2022/02/12 10:50:25;;;;;;;3.73;1.77;;;4.50;99.90;;;;;;4993855;28;20759;-70
2022/02/12 10:52:56;;;;;;;3.50;2.27;;;4.50;99.90;;;;;;4995460;28;20844;-71
2022/02/12 10:55:36;;;;;;;0.70;0.70;;;4.50;99.90;;;;;;5009614;28;20547;-71
2022/02/12 10:58:07;;;;;;;1.20;1.10;;;4.50;99.90;;;;;;5015196;28;20410;-71
2022/02/12 11:00:35;;;;;;;1.53;1.33;;;4.50;99.90;;;;;;4996894;28;20447;-72
2022/02/12 11:03:05;;;;;;;1.67;1.57;;;4.50;99.90;;;;;;4995614;28;20416;-71
2022/02/12 11:05:33;;;;;;;1.10;1.00;;;4.70;99.90;;;;;;4987603;28;20451;-70
2022/02/12 11:07:59;;;;;;;1.40;1.30;;;4.60;99.90;;;;;;4995560;28;20918;-71
2022/02/12 11:10:24;;;;;;;4.63;2.17;;;4.60;99.90;;;;;;4995165;28;20466;-70
2022/02/12 11:12:51;;;;;;;7.33;2.00;;;4.70;99.90;;;;;;4995465;28;20184;-71
2022/02/12 11:15:17;;;;;;;1.50;1.40;;;4.80;99.90;;;;;;4995325;28;20598;-70
2022/02/12 11:17:44;;;;;;;2.90;2.00;;;4.80;99.90;;;;;;4995299;28;20408;-70
2022/02/12 11:20:11;;;;;;;2.50;1.33;;;4.80;99.90;;;;;;4995468;28;20488;-70
2022/02/12 11:22:38;;;;;;;4.77;2.90;;;5.00;99.90;;;;;;4995089;28;20462;-70
2022/02/12 11:25:04;;;;;;;1.63;1.30;;;5.20;99.90;;;;;;4994906;28;20866;-71
2022/02/12 11:27:29;;;;;;;2.83;1.37;;;5.30;99.90;;;;;;4995046;28;20461;-71
2022/02/12 11:30:14;;;;;;;0.97;0.97;;;5.10;99.90;;;;;;4995066;28;20474;-71
2022/02/12 11:32:46;;;;;;;7.83;1.87;;;5.20;99.90;;;;;;4994822;28;20204;-71
2022/02/12 11:35:11;;;;;;;8.00;1.63;;;5.40;99.90;;;;;;4995027;28;20466;-71
2022/02/12 11:37:44;;;;;;;1.87;1.70;;;5.90;99.90;;;;;;4994883;28;20958;-71
2022/02/12 11:40:11;;;;;;;0.90;0.90;;;5.70;99.90;;;;;;4995171;28;20534;-71
2022/02/12 11:42:58;;;;;;;0.97;0.87;;;5.90;99.90;;;;;;4994964;28;20463;-71
2022/02/12 11:45:34;;;;;;;1.40;1.30;;;5.60;99.90;;;;;;4993486;28;20420;-71
2022/02/12 11:48:17;;;;;;;1.20;0.90;;;5.40;99.90;;;;;;4994717;28;20415;-71
2022/02/12 11:50:55;;;;;;;1.13;1.10;;;5.50;99.90;;;;;;4994595;28;20435;-71
2022/02/12 11:53:43;;;;;;;1.57;1.47;;;5.10;99.90;;;;;;4994858;28;20503;-71
2022/02/12 11:56:17;;;;;;;1.67;1.10;;;5.00;99.90;;;;;;4994145;28;20941;-70
2022/02/12 11:58:45;;;;;;;0.70;0.70;;;5.20;99.90;;;;;;4994329;28;20483;-70
2022/02/12 12:01:27;;;;;;;3.57;1.00;;;5.10;99.90;;;;;;4994169;28;20793;-71
2022/02/12 12:04:10;;;;;;;1.30;1.20;;;5.10;99.90;;;;;;4992460;28;20927;-71
2022/02/12 12:06:40;;;;;;;1.20;1.10;;;5.10;99.90;;;;;;4994713;28;20400;-70
2022/02/12 12:09:15;;;;;;;1.47;0.80;;;5.30;99.90;;;;;;4994240;28;20938;-70
2022/02/12 12:11:41;;;;;;;1.70;1.03;;;5.60;99.90;;;;;;4994053;28;20455;-71
2022/02/12 12:14:22;;;;;;;1.30;1.10;;;5.60;99.90;;;;;;4994189;28;20408;-70
2022/02/12 12:16:58;;;;;;;1.40;0.90;;;5.60;99.90;;;;;;4994198;28;20408;-70
2022/02/12 12:19:27;;;;;;;0.97;0.90;;;5.50;99.90;;;;;;4994501;28;20404;-70
2022/02/12 12:22:03;;;;;;;1.57;1.00;;;5.50;99.90;;;;;;4994205;28;20525;-70
2022/02/12 12:24:29;;;;;;;1.17;0.90;;;5.40;99.90;;;;;;4993894;28;20458;-70
2022/02/12 12:26:55;;;;;;;1.33;0.80;;;5.60;99.90;;;;;;4993956;28;20420;-70
2022/02/12 12:32:13;;;;;;;0.73;0.73;;;5.60;99.90;;;;;;4994118;28;20211;-70
2022/02/12 12:35:03;;;;;;;0.70;0.70;;;5.60;99.90;;;;;;4993428;28;20412;-70
2022/02/12 12:37:30;;;;;;;0.80;0.80;;;5.80;99.90;;;;;;4992208;28;20779;-69
2022/02/12 12:40:00;;;;;;;0.73;0.73;;;5.80;99.90;;;;;;4991442;28;20447;-72
2022/02/12 12:42:27;;;;;;;0.90;0.90;;;5.80;99.90;;;;;;4991824;28;20490;-69
2022/02/12 12:45:03;;;;;;;4.10;1.10;;;5.60;99.90;;;;;;4993326;28;20915;-71
2022/02/12 12:47:29;;;;;;;2.30;1.97;;;5.80;99.90;;;;;;4993549;28;20466;-70
2022/02/12 12:49:57;;;;;;;2.60;0.90;;;5.80;99.90;;;;;;4993586;28;20470;-70
2022/02/12 12:52:31;;;;;;;2.40;1.53;;;5.70;99.90;;;;;;4993468;28;20561;-70
2022/02/12 12:55:13;;;;;;;2.77;0.93;;;5.70;99.90;;;;;;4993935;28;20473;-70
2022/02/12 12:57:42;;;;;;;1.83;1.00;;;5.70;99.90;;;;;;4993566;28;20411;-70
2022/02/12 13:00:09;;;;;;;1.23;1.10;;;5.70;99.90;;;;;;4993457;28;20411;-70
2022/02/12 13:02:34;;;;;;;0.93;0.73;;;5.70;99.90;;;;;;4993245;28;20820;-71